createdAt,value
2023-01-19T00:00:53.755Z,5.20
2023-01-19T00:03:21.549Z,5.60
2023-01-19T00:05:48.481Z,5.80
2023-01-19T00:08:15.577Z,6.00
2023-01-19T00:10:44.749Z,5.40
2023-01-19T00:13:14.575Z,5.30
2023-01-19T00:15:41.433Z,6.00
2023-01-19T00:18:10.599Z,5.80
2023-01-19T00:20:38.729Z,6.40
2023-01-19T00:23:08.169Z,6.20
2023-01-19T00:25:35.456Z,5.50
2023-01-19T00:28:02.308Z,5.70
2023-01-19T00:30:29.476Z,5.90
2023-01-19T00:32:56.161Z,6.00
2023-01-19T00:35:23.197Z,5.40
2023-01-19T00:37:50.389Z,5.70
2023-01-19T00:40:17.654Z,5.60
2023-01-19T00:42:44.644Z,5.70
2023-01-19T00:45:16.656Z,5.40
2023-01-19T00:47:43.649Z,5.70
2023-01-19T00:50:12.920Z,5.10
2023-01-19T00:52:41.110Z,5.40
2023-01-19T00:55:09.613Z,5.50
2023-01-19T00:57:36.589Z,5.90
2023-01-19T01:00:06.557Z,5.00
2023-01-19T01:02:33.899Z,5.50
2023-01-19T01:05:02.837Z,5.50
2023-01-19T01:07:31.084Z,5.40
2023-01-19T01:09:57.869Z,5.30
2023-01-19T01:12:25.302Z,4.90
2023-01-19T01:14:52.242Z,5.00
2023-01-19T01:17:24.756Z,5.00
2023-01-19T01:19:52.281Z,4.80
2023-01-19T01:22:19.592Z,5.50
2023-01-19T01:24:46.477Z,5.00
2023-01-19T01:27:13.336Z,5.30
2023-01-19T01:29:41.226Z,5.20
2023-01-19T01:32:08.443Z,5.10
2023-01-19T01:34:35.936Z,4.80
2023-01-19T01:37:02.978Z,5.10
2023-01-19T01:39:29.781Z,4.60
2023-01-19T01:41:57.560Z,5.60
2023-01-19T01:44:53.616Z,5.20
2023-01-19T01:47:23.706Z,5.00
2023-01-19T01:50:03.117Z,5.20
2023-01-19T01:52:34.312Z,5.30
2023-01-19T01:55:07.089Z,4.70
2023-01-19T01:57:41.319Z,5.30
2023-01-19T02:00:08.981Z,5.00
2023-01-19T02:02:52.354Z,5.20
2023-01-19T02:05:26.890Z,5.50
2023-01-19T02:08:19.243Z,5.10
2023-01-19T02:11:05.512Z,5.60
2023-01-19T02:13:36.352Z,5.40
2023-01-19T02:16:08.938Z,5.00
2023-01-19T02:18:37.588Z,5.40
2023-01-19T02:21:13.547Z,5.00
2023-01-19T02:23:58.308Z,5.40
2023-01-19T02:26:31.462Z,5.20
2023-01-19T02:29:05.509Z,5.10
2023-01-19T02:31:34.378Z,5.30
2023-01-19T02:34:03.038Z,4.70
2023-01-19T02:36:54.403Z,4.80
2023-01-19T02:39:29.168Z,4.80
2023-01-19T02:42:03.234Z,5.30
2023-01-19T02:44:31.511Z,5.30
2023-01-19T02:46:58.079Z,5.20
2023-01-19T02:49:28.971Z,5.10
2023-01-19T02:51:56.193Z,5.10
2023-01-19T02:54:31.778Z,5.10
2023-01-19T02:57:24.807Z,4.90
2023-01-19T03:00:17.745Z,5.60
2023-01-19T03:03:19.887Z,5.40
2023-01-19T03:05:54.143Z,4.90
2023-01-19T03:08:34.297Z,4.80
2023-01-19T03:11:10.311Z,5.20
2023-01-19T03:14:09.000Z,5.10
2023-01-19T03:16:38.802Z,5.30
2023-01-19T03:19:12.413Z,5.40
2023-01-19T03:21:42.743Z,5.30
2023-01-19T03:24:12.305Z,5.10
2023-01-19T03:26:47.352Z,5.80
2023-01-19T03:29:16.358Z,5.40
2023-01-19T03:31:46.356Z,5.30
2023-01-19T03:34:16.146Z,5.40
2023-01-19T03:36:46.562Z,5.30
2023-01-19T03:39:18.047Z,5.50
2023-01-19T03:41:48.772Z,5.70
2023-01-19T03:44:16.696Z,4.90
2023-01-19T03:46:45.827Z,5.50
2023-01-19T03:49:13.143Z,5.50
2023-01-19T03:51:40.286Z,4.80
2023-01-19T03:54:07.617Z,4.80
2023-01-19T03:56:34.927Z,5.30
2023-01-19T03:59:01.780Z,4.90
2023-01-19T04:01:28.842Z,5.40
2023-01-19T04:03:55.888Z,5.50
2023-01-19T04:06:23.149Z,5.40
2023-01-19T04:08:51.905Z,5.00
2023-01-19T04:11:18.814Z,4.90
2023-01-19T04:13:45.780Z,5.50
2023-01-19T04:16:12.796Z,5.40
2023-01-19T04:18:42.193Z,5.40
2023-01-19T04:21:09.254Z,5.60
2023-01-19T04:23:36.567Z,5.40
2023-01-19T04:26:06.440Z,5.50
2023-01-19T04:28:39.516Z,5.50
2023-01-19T04:31:06.932Z,5.70
2023-01-19T04:33:34.410Z,5.50
2023-01-19T04:36:01.715Z,5.90
2023-01-19T04:38:28.926Z,4.90
2023-01-19T04:40:56.199Z,5.70
2023-01-19T04:43:23.957Z,5.20
2023-01-19T04:45:51.485Z,5.30
2023-01-19T04:48:18.863Z,5.00
2023-01-19T04:50:48.633Z,5.20
2023-01-19T04:53:16.534Z,4.90
2023-01-19T04:55:43.522Z,5.60
2023-01-19T04:58:10.436Z,5.20
2023-01-19T05:00:39.421Z,5.10
2023-01-19T05:03:06.309Z,5.10
2023-01-19T05:05:36.166Z,4.80
2023-01-19T05:08:03.272Z,4.60
2023-01-19T05:10:30.643Z,5.30
2023-01-19T05:12:58.192Z,4.90
2023-01-19T05:15:25.752Z,5.30
2023-01-19T05:17:57.975Z,4.70
2023-01-19T05:20:25.990Z,4.70
2023-01-19T05:22:53.882Z,4.60
2023-01-19T05:25:21.107Z,4.40
2023-01-19T05:27:48.035Z,4.90
2023-01-19T05:30:15.362Z,4.40
2023-01-19T05:32:42.447Z,4.70
2023-01-19T05:35:10.013Z,5.10
2023-01-19T05:37:36.845Z,4.40
2023-01-19T05:40:07.441Z,5.10
2023-01-19T05:42:34.361Z,4.80
2023-01-19T05:45:01.601Z,4.70
2023-01-19T05:47:31.622Z,4.90
2023-01-19T05:49:58.655Z,5.30
2023-01-19T05:52:26.025Z,4.80
2023-01-19T05:54:55.044Z,5.30
2023-01-19T05:57:24.975Z,5.10
2023-01-19T05:59:52.026Z,5.20
2023-01-19T06:02:19.236Z,5.20
2023-01-19T06:04:46.289Z,5.00
2023-01-19T06:07:13.480Z,4.90
2023-01-19T06:09:40.292Z,4.80
2023-01-19T06:12:07.352Z,5.10
2023-01-19T06:14:41.550Z,4.90
2023-01-19T06:17:08.725Z,4.70
2023-01-19T06:19:35.833Z,5.20
2023-01-19T06:22:02.864Z,4.80
2023-01-19T06:24:30.261Z,5.70
2023-01-19T06:26:57.234Z,5.60
2023-01-19T06:29:25.410Z,4.90
2023-01-19T06:31:54.844Z,4.90
2023-01-19T06:34:22.271Z,4.80
2023-01-19T06:36:50.674Z,4.90
2023-01-19T06:39:17.958Z,4.70
2023-01-19T06:41:45.137Z,4.70
2023-01-19T06:44:12.051Z,4.60
2023-01-19T06:46:39.222Z,4.70
2023-01-19T06:49:06.128Z,4.90
2023-01-19T06:51:32.909Z,4.80
2023-01-19T06:53:59.787Z,4.70
2023-01-19T06:56:26.481Z,4.70
2023-01-19T06:58:54.324Z,4.80
2023-01-19T07:01:21.772Z,4.60
2023-01-19T07:03:48.540Z,4.60
2023-01-19T07:06:15.365Z,4.90
2023-01-19T07:08:42.381Z,4.40
2023-01-19T07:11:24.733Z,5.10
2023-01-19T07:13:58.384Z,4.40
2023-01-19T07:16:25.462Z,4.30
2023-01-19T07:18:53.035Z,4.70
2023-01-19T07:21:20.519Z,4.50
2023-01-19T07:23:53.887Z,4.80
2023-01-19T07:26:22.223Z,4.50
2023-01-19T07:28:52.378Z,4.50
2023-01-19T07:31:20.055Z,4.90
2023-01-19T07:33:47.207Z,4.50
2023-01-19T07:36:14.713Z,4.40
2023-01-19T07:38:41.958Z,4.70
2023-01-19T07:41:10.093Z,4.30
2023-01-19T07:43:37.136Z,4.50
2023-01-19T07:46:06.331Z,4.60
2023-01-19T07:48:33.619Z,4.80
2023-01-19T07:51:01.844Z,4.70
2023-01-19T07:53:28.801Z,4.30
2023-01-19T07:55:59.305Z,4.20
2023-01-19T07:58:26.666Z,4.00
2023-01-19T08:00:53.734Z,4.30
2023-01-19T08:03:20.776Z,4.80
2023-01-19T08:05:52.176Z,4.50
2023-01-19T08:08:19.491Z,4.00
2023-01-19T08:10:49.856Z,4.70
2023-01-19T08:13:16.698Z,4.00
2023-01-19T08:15:44.038Z,3.80
2023-01-19T08:18:11.757Z,3.40
2023-01-19T08:20:38.751Z,3.70
2023-01-19T08:23:05.662Z,4.00
2023-01-19T08:25:34.232Z,3.60
2023-01-19T08:28:01.615Z,3.30
2023-01-19T08:30:28.410Z,4.00
2023-01-19T08:32:58.088Z,4.20
2023-01-19T08:35:25.378Z,3.80
2023-01-19T08:37:52.422Z,3.60
2023-01-19T08:40:19.712Z,4.00
2023-01-19T08:42:46.514Z,4.00
2023-01-19T08:45:13.538Z,3.90
2023-01-19T08:47:40.501Z,4.00
2023-01-19T08:50:07.888Z,4.00
2023-01-19T08:52:34.583Z,4.20
2023-01-19T08:55:04.889Z,4.40
2023-01-19T08:57:31.848Z,4.00
2023-01-19T09:00:00.953Z,4.10
2023-01-19T09:02:28.305Z,3.60
2023-01-19T09:04:55.393Z,3.80
2023-01-19T09:07:22.125Z,4.00
2023-01-19T09:09:48.754Z,4.10
2023-01-19T09:12:16.556Z,3.90
2023-01-19T09:14:43.621Z,4.00
2023-01-19T09:17:10.503Z,3.70
2023-01-19T09:19:37.119Z,3.60
2023-01-19T09:22:04.421Z,3.80
2023-01-19T09:24:31.210Z,3.70
2023-01-19T09:26:58.259Z,3.70
2023-01-19T09:29:25.702Z,4.20
2023-01-19T09:31:53.030Z,3.70
2023-01-19T09:34:21.015Z,3.40
2023-01-19T09:36:48.225Z,3.60
2023-01-19T09:39:15.073Z,4.20
2023-01-19T09:41:47.303Z,4.20
2023-01-19T09:44:32.131Z,4.70
2023-01-19T09:47:00.780Z,4.20
2023-01-19T09:49:41.624Z,4.40
2023-01-19T09:52:13.330Z,5.40
2023-01-19T09:54:52.988Z,5.00
2023-01-19T09:57:26.885Z,5.30
2023-01-19T09:59:59.394Z,4.10
2023-01-19T10:02:32.016Z,4.20
2023-01-19T10:05:00.273Z,3.90
2023-01-19T10:07:36.603Z,4.20
2023-01-19T10:10:13.129Z,4.10
2023-01-19T10:12:56.121Z,4.40
2023-01-19T10:15:49.197Z,5.00
2023-01-19T10:18:39.910Z,4.60
2023-01-19T10:21:14.811Z,4.70
2023-01-19T10:23:57.241Z,4.70
2023-01-19T10:26:33.836Z,4.70
2023-01-19T10:29:22.129Z,4.90
2023-01-19T10:31:52.136Z,5.30
2023-01-19T10:34:23.195Z,4.70
2023-01-19T10:36:57.863Z,5.30
2023-01-19T10:39:25.109Z,5.10
2023-01-19T10:41:53.454Z,5.70
2023-01-19T10:44:36.799Z,5.70
2023-01-19T10:47:06.337Z,4.90
2023-01-19T10:49:39.072Z,5.00
2023-01-19T10:52:08.070Z,4.80
2023-01-19T10:54:37.321Z,5.20
2023-01-19T10:57:07.599Z,5.20
2023-01-19T10:59:49.557Z,4.90
2023-01-19T11:02:27.857Z,4.70
2023-01-19T11:05:21.667Z,4.50
2023-01-19T11:07:48.894Z,4.30
2023-01-19T11:10:15.874Z,5.00
2023-01-19T11:12:45.916Z,4.80
2023-01-19T11:15:21.457Z,4.80
2023-01-19T11:17:48.957Z,4.70
2023-01-19T11:20:20.307Z,4.40
2023-01-19T11:22:48.826Z,4.10
2023-01-19T11:25:32.061Z,4.10
2023-01-19T11:27:59.196Z,4.50
2023-01-19T11:30:27.076Z,4.50
2023-01-19T11:32:54.479Z,3.80
2023-01-19T11:35:41.607Z,3.80
2023-01-19T11:38:23.769Z,4.10
2023-01-19T11:41:04.134Z,4.00
2023-01-19T11:43:47.417Z,3.50
2023-01-19T11:46:16.414Z,3.90
2023-01-19T11:48:57.474Z,3.30
2023-01-19T11:51:30.545Z,3.10
2023-01-19T11:53:57.433Z,3.00
2023-01-19T11:56:28.945Z,3.40
2023-01-19T11:58:56.371Z,2.80
2023-01-19T12:01:24.635Z,2.70
2023-01-19T12:04:14.319Z,3.00
2023-01-19T12:06:44.777Z,3.20
2023-01-19T12:09:23.457Z,3.10
2023-01-19T12:11:57.448Z,3.00
2023-01-19T12:14:31.501Z,3.30
2023-01-19T12:17:03.250Z,3.00
2023-01-19T12:19:42.255Z,3.40
2023-01-19T12:22:15.218Z,3.50
2023-01-19T12:24:58.660Z,3.40
2023-01-19T12:27:40.777Z,3.80
2023-01-19T12:30:21.075Z,4.90
2023-01-19T12:32:48.080Z,4.10
2023-01-19T12:36:00.766Z,5.20
2023-01-19T12:38:56.670Z,4.10
2023-01-19T12:41:41.004Z,3.70
2023-01-19T12:44:10.983Z,3.80
2023-01-19T12:46:42.705Z,4.00
2023-01-19T12:49:26.977Z,6.90
2023-01-19T12:52:28.112Z,4.20
2023-01-19T12:55:14.130Z,5.20
2023-01-19T12:57:47.097Z,4.60
2023-01-19T13:00:23.524Z,4.50
2023-01-19T13:03:00.146Z,4.50
2023-01-19T13:05:33.607Z,4.30
2023-01-19T13:08:03.417Z,4.30
2023-01-19T13:11:02.163Z,4.20
2023-01-19T13:13:31.220Z,4.60
2023-01-19T13:16:27.685Z,4.20
2023-01-19T13:19:05.510Z,4.90
2023-01-19T13:21:44.841Z,4.50
2023-01-19T13:24:15.097Z,4.40
2023-01-19T13:26:51.080Z,4.20
2023-01-19T13:29:35.610Z,4.60
2023-01-19T13:32:06.518Z,4.30
2023-01-19T13:34:42.553Z,4.40
2023-01-19T13:37:18.478Z,4.00
2023-01-19T13:39:49.895Z,4.40
2023-01-19T13:42:36.985Z,4.00
2023-01-19T13:45:16.104Z,4.10
2023-01-19T13:47:46.811Z,4.40
2023-01-19T13:50:21.921Z,4.00
2023-01-19T13:52:53.902Z,4.20
2023-01-19T13:55:21.911Z,4.40
2023-01-19T13:57:50.369Z,5.40
2023-01-19T14:00:18.940Z,4.10
2023-01-19T14:02:54.269Z,3.80
2023-01-19T14:05:24.500Z,3.50
2023-01-19T14:08:14.926Z,3.70
2023-01-19T14:10:53.577Z,3.30
2023-01-19T14:13:27.217Z,3.60
2023-01-19T14:15:59.478Z,3.10
2023-01-19T14:18:32.598Z,8.30
2023-01-19T14:21:08.863Z,5.50
2023-01-19T14:23:35.437Z,13.60
2023-01-19T14:26:02.157Z,12.00
2023-01-19T14:28:39.416Z,29.70
2023-01-19T14:31:20.710Z,10.30
2023-01-19T14:33:51.353Z,11.30
2023-01-19T14:36:21.562Z,17.60
2023-01-19T14:38:50.171Z,9.00
2023-01-19T14:41:32.644Z,5.30
2023-01-19T14:44:00.485Z,6.60
2023-01-19T14:46:27.306Z,4.70
2023-01-19T14:49:01.151Z,5.20
2023-01-19T14:51:29.511Z,4.70
2023-01-19T14:53:59.364Z,5.40
2023-01-19T14:56:31.928Z,5.90
2023-01-19T14:59:00.801Z,6.50
2023-01-19T15:01:29.473Z,6.50
2023-01-19T15:03:59.355Z,6.30
2023-01-19T15:06:26.607Z,6.40
2023-01-19T15:08:53.859Z,5.70
2023-01-19T15:11:33.015Z,10.00
2023-01-19T15:14:00.344Z,21.10
2023-01-19T15:16:29.093Z,12.00
2023-01-19T15:18:56.203Z,9.40
2023-01-19T15:21:26.635Z,6.00
2023-01-19T15:23:54.765Z,5.00
2023-01-19T15:26:26.321Z,6.10
2023-01-19T15:28:53.726Z,6.80
2023-01-19T15:31:23.521Z,5.30
2023-01-19T15:33:50.615Z,5.50
2023-01-19T15:36:22.286Z,5.00
2023-01-19T15:38:52.210Z,5.20
2023-01-19T15:41:29.943Z,5.20
2023-01-19T15:43:57.107Z,5.70
2023-01-19T15:46:25.754Z,5.40
2023-01-19T15:48:54.145Z,6.10
2023-01-19T15:51:23.364Z,5.90
2023-01-19T15:53:50.227Z,6.00
2023-01-19T15:56:26.343Z,6.20
2023-01-19T15:58:53.843Z,6.40
2023-01-19T16:01:23.328Z,7.30
2023-01-19T16:03:51.254Z,7.90
2023-01-19T16:06:18.452Z,6.80
2023-01-19T16:08:45.650Z,6.20
2023-01-19T16:11:15.108Z,6.20
2023-01-19T16:13:46.155Z,6.30
2023-01-19T16:16:16.659Z,7.20
2023-01-19T16:18:43.755Z,7.00
2023-01-19T16:21:10.764Z,6.40
2023-01-19T16:23:38.011Z,5.90
2023-01-19T16:26:22.936Z,6.00
2023-01-19T16:28:49.728Z,5.80
2023-01-19T16:31:16.671Z,5.40
2023-01-19T16:33:45.188Z,5.90
2023-01-19T16:36:31.667Z,6.00
2023-01-19T16:39:03.797Z,5.80
2023-01-19T16:41:31.156Z,5.90
2023-01-19T16:43:58.417Z,6.40
2023-01-19T16:46:35.154Z,5.60
2023-01-19T16:49:22.979Z,5.90
2023-01-19T16:51:50.754Z,6.80
2023-01-19T16:54:20.791Z,6.40
2023-01-19T16:56:48.589Z,6.40
2023-01-19T16:59:17.417Z,6.40
2023-01-19T17:01:45.506Z,6.80
2023-01-19T17:04:13.435Z,7.10
2023-01-19T17:06:40.601Z,7.90
2023-01-19T17:09:09.401Z,7.00
2023-01-19T17:11:37.075Z,7.40
2023-01-19T17:14:07.222Z,7.70
2023-01-19T17:16:35.265Z,7.00
2023-01-19T17:19:04.531Z,7.90
2023-01-19T17:21:35.105Z,7.00
2023-01-19T17:24:01.954Z,6.50
2023-01-19T17:26:30.997Z,7.20
2023-01-19T17:29:02.904Z,7.00
2023-01-19T17:31:31.999Z,8.20
2023-01-19T17:33:59.986Z,8.30
2023-01-19T17:36:28.939Z,7.70
2023-01-19T17:38:58.106Z,7.80
2023-01-19T17:41:27.405Z,8.70
2023-01-19T17:43:55.031Z,7.60
2023-01-19T17:46:24.342Z,7.60
2023-01-19T17:48:58.733Z,8.10
2023-01-19T17:51:26.347Z,7.60
2023-01-19T17:53:53.575Z,8.30
2023-01-19T17:56:22.476Z,8.70
2023-01-19T17:58:49.946Z,7.60
2023-01-19T18:01:19.392Z,8.30
2023-01-19T18:03:46.500Z,8.70
2023-01-19T18:06:14.091Z,9.00
2023-01-19T18:08:46.249Z,9.40
2023-01-19T18:11:13.965Z,10.10
2023-01-19T18:13:44.006Z,10.70
2023-01-19T18:16:13.912Z,10.40
2023-01-19T18:18:41.387Z,9.70
2023-01-19T18:21:10.256Z,10.60
2023-01-19T18:23:37.328Z,11.00
2023-01-19T18:26:06.827Z,10.50
2023-01-19T18:28:33.903Z,11.90
2023-01-19T18:31:01.191Z,11.80
2023-01-19T18:33:28.797Z,10.90
2023-01-19T18:35:55.523Z,11.50
2023-01-19T18:38:22.414Z,12.30
2023-01-19T18:40:48.922Z,11.80
2023-01-19T18:43:16.400Z,12.10
2023-01-19T18:45:46.980Z,11.40
2023-01-19T18:48:13.890Z,11.90
2023-01-19T18:50:40.564Z,12.50
2023-01-19T18:53:07.366Z,11.30
2023-01-19T18:55:36.291Z,12.40
2023-01-19T18:58:05.074Z,12.00
2023-01-19T19:00:32.003Z,11.30
2023-01-19T19:02:58.649Z,12.70
2023-01-19T19:05:25.619Z,13.00
2023-01-19T19:07:52.487Z,13.00
2023-01-19T19:10:19.309Z,12.50
2023-01-19T19:12:45.917Z,12.80
2023-01-19T19:15:13.916Z,11.70
2023-01-19T19:17:40.536Z,12.60
2023-01-19T19:20:07.389Z,12.40
2023-01-19T19:22:34.173Z,11.10
2023-01-19T19:25:01.031Z,12.50
2023-01-19T19:27:27.973Z,12.80
2023-01-19T19:29:54.421Z,12.40
2023-01-19T19:32:21.545Z,13.20
2023-01-19T19:34:56.559Z,12.20
2023-01-19T19:37:23.852Z,12.60
2023-01-19T19:39:50.904Z,13.30
2023-01-19T19:42:18.009Z,13.00
2023-01-19T19:44:44.998Z,12.80
2023-01-19T19:47:11.979Z,13.20
2023-01-19T19:49:39.293Z,12.90
2023-01-19T19:52:06.319Z,13.10
2023-01-19T19:54:33.285Z,13.40
2023-01-19T19:57:00.615Z,14.00
2023-01-19T19:59:27.612Z,14.70
2023-01-19T20:01:54.680Z,14.40
2023-01-19T20:04:22.816Z,15.00
2023-01-19T20:06:49.917Z,16.40
2023-01-19T20:09:17.197Z,15.80
2023-01-19T20:11:46.709Z,16.40
2023-01-19T20:14:14.615Z,16.20
2023-01-19T20:16:41.552Z,16.20
2023-01-19T20:19:08.414Z,16.60
2023-01-19T20:21:37.734Z,17.60
2023-01-19T20:24:08.110Z,17.30
2023-01-19T20:26:39.752Z,15.60
2023-01-19T20:29:07.002Z,16.10
2023-01-19T20:31:38.143Z,17.70
2023-01-19T20:34:07.310Z,18.40
2023-01-19T20:36:34.967Z,18.20
2023-01-19T20:39:08.359Z,18.30
2023-01-19T20:41:38.847Z,17.10
2023-01-19T20:44:05.890Z,17.80
2023-01-19T20:46:32.577Z,19.10
2023-01-19T20:48:59.478Z,18.40
2023-01-19T20:51:27.025Z,18.70
2023-01-19T20:53:53.943Z,19.40
2023-01-19T20:56:21.085Z,18.30
2023-01-19T20:58:47.880Z,22.10
2023-01-19T21:01:18.759Z,21.50
2023-01-19T21:03:45.761Z,21.40
2023-01-19T21:06:13.717Z,22.20
2023-01-19T21:08:41.151Z,21.50
2023-01-19T21:11:09.319Z,21.10
2023-01-19T21:13:37.069Z,21.20
2023-01-19T21:16:04.749Z,21.30
2023-01-19T21:18:31.666Z,21.10
2023-01-19T21:20:58.797Z,20.30
2023-01-19T21:23:26.795Z,21.20
2023-01-19T21:25:57.740Z,21.50
2023-01-19T21:28:25.709Z,21.60
2023-01-19T21:30:53.726Z,20.70
2023-01-19T21:33:21.308Z,21.30
2023-01-19T21:35:56.146Z,20.70
2023-01-19T21:38:24.347Z,21.20
2023-01-19T21:40:51.589Z,22.30
2023-01-19T21:43:20.095Z,21.40
2023-01-19T21:45:48.394Z,21.00
2023-01-19T21:48:16.158Z,20.70
2023-01-19T21:50:43.831Z,21.20
2023-01-19T21:53:11.485Z,21.70
2023-01-19T21:55:42.789Z,22.80
2023-01-19T21:58:09.501Z,22.00
2023-01-19T22:00:36.353Z,21.40
2023-01-19T22:03:04.659Z,21.30
2023-01-19T22:05:36.723Z,21.60
2023-01-19T22:08:05.089Z,20.70
2023-01-19T22:10:32.357Z,22.00
2023-01-19T22:12:59.329Z,22.20
2023-01-19T22:15:26.570Z,21.20
2023-01-19T22:17:53.479Z,19.90
2023-01-19T22:20:20.140Z,20.60
2023-01-19T22:22:46.606Z,21.30
2023-01-19T22:25:15.303Z,21.70
2023-01-19T22:27:42.119Z,21.50
2023-01-19T22:30:09.457Z,22.10
2023-01-19T22:32:36.775Z,21.90
2023-01-19T22:35:03.937Z,22.00
2023-01-19T22:37:36.287Z,21.50
2023-01-19T22:40:04.665Z,21.00
2023-01-19T22:42:31.601Z,22.50
2023-01-19T22:44:58.427Z,22.00
2023-01-19T22:47:27.953Z,23.20
2023-01-19T22:49:57.512Z,22.00
2023-01-19T22:52:27.336Z,21.30
2023-01-19T22:54:57.553Z,22.20
2023-01-19T22:57:33.571Z,21.50
2023-01-19T23:00:07.144Z,21.40
2023-01-19T23:02:34.140Z,21.50
2023-01-19T23:05:01.042Z,22.80
2023-01-19T23:07:28.115Z,21.70
2023-01-19T23:09:54.692Z,22.40
2023-01-19T23:12:21.655Z,22.20
2023-01-19T23:14:48.538Z,22.40
2023-01-19T23:17:15.204Z,22.40
2023-01-19T23:19:42.426Z,22.70
2023-01-19T23:22:09.271Z,21.40
2023-01-19T23:24:36.140Z,21.90
2023-01-19T23:27:02.948Z,21.70
2023-01-19T23:29:30.003Z,21.50
2023-01-19T23:31:56.942Z,22.10
2023-01-19T23:34:23.932Z,22.20
2023-01-19T23:36:51.132Z,22.40
2023-01-19T23:39:21.898Z,21.90
2023-01-19T23:41:49.448Z,21.20
2023-01-19T23:44:17.159Z,21.80
2023-01-19T23:46:44.456Z,20.90
2023-01-19T23:49:12.105Z,20.50
2023-01-19T23:51:39.410Z,20.90
2023-01-19T23:54:06.301Z,21.90
2023-01-19T23:56:36.063Z,21.70
2023-01-19T23:59:08.668Z,20.90
